createdAt,value
2024-04-17T00:00:55.950Z,27.87
2024-04-17T00:01:56.071Z,27.82
2024-04-17T00:02:55.871Z,27.82
2024-04-17T00:03:55.965Z,27.82
2024-04-17T00:04:55.868Z,27.81
2024-04-17T00:05:55.800Z,27.80
2024-04-17T00:06:55.791Z,27.80
2024-04-17T00:07:55.778Z,27.80
2024-04-17T00:08:55.722Z,27.77
2024-04-17T00:09:55.708Z,27.80
2024-04-17T00:10:55.774Z,27.74
2024-04-17T00:11:55.647Z,27.78
2024-04-17T00:12:55.615Z,27.75
2024-04-17T00:13:55.621Z,27.75
2024-04-17T00:14:55.567Z,27.74
2024-04-17T00:15:56.449Z,27.77
2024-04-17T00:16:55.757Z,27.75
2024-04-17T00:17:55.571Z,27.75
2024-04-17T00:18:55.465Z,27.77
2024-04-17T00:19:55.518Z,27.77
2024-04-17T00:20:55.432Z,27.74
2024-04-17T00:21:55.426Z,27.74
2024-04-17T00:22:55.435Z,27.74
2024-04-17T00:23:55.365Z,27.77
2024-04-17T00:24:55.350Z,27.77
2024-04-17T00:25:55.357Z,27.74
2024-04-17T00:26:55.320Z,27.75
2024-04-17T00:27:55.277Z,27.77
2024-04-17T00:28:55.323Z,27.78
2024-04-17T00:29:55.244Z,27.78
2024-04-17T00:30:55.229Z,27.78
2024-04-17T00:31:55.272Z,27.75
2024-04-17T00:32:55.248Z,27.80
2024-04-17T00:33:55.166Z,27.80
2024-04-17T00:34:55.216Z,27.80
2024-04-17T00:35:55.170Z,27.80
2024-04-17T00:36:55.174Z,27.80
2024-04-17T00:37:55.221Z,27.82
2024-04-17T00:38:55.203Z,27.81
2024-04-17T00:39:55.123Z,27.80
2024-04-17T00:40:55.270Z,27.80
2024-04-17T00:41:55.119Z,27.80
2024-04-17T00:42:55.115Z,27.80
2024-04-17T00:43:55.156Z,27.80
2024-04-17T00:44:55.097Z,27.80
2024-04-17T00:45:55.134Z,27.81
2024-04-17T00:46:55.279Z,27.78
2024-04-17T00:47:55.145Z,27.78
2024-04-17T00:48:55.101Z,27.78
2024-04-17T00:49:55.197Z,27.80
2024-04-17T00:50:55.080Z,27.74
2024-04-17T00:51:55.107Z,27.77
2024-04-17T00:52:55.160Z,27.77
2024-04-17T00:53:55.073Z,27.77
2024-04-17T00:54:55.041Z,27.77
2024-04-17T00:55:55.060Z,27.80
2024-04-17T00:56:54.989Z,27.80
2024-04-17T00:57:54.950Z,27.78
2024-04-17T00:58:55.003Z,27.81
2024-04-17T00:59:54.890Z,27.81
2024-04-17T01:00:54.896Z,27.80
2024-04-17T01:01:58.243Z,27.81
2024-04-17T01:02:55.893Z,27.82
2024-04-17T01:03:54.859Z,27.84
2024-04-17T01:04:54.861Z,27.84
2024-04-17T01:05:54.750Z,27.82
2024-04-17T01:06:54.764Z,27.82
2024-04-17T01:07:54.744Z,27.82
2024-04-17T01:08:54.672Z,27.84
2024-04-17T01:09:54.742Z,27.81
2024-04-17T01:10:54.710Z,27.80
2024-04-17T01:11:54.617Z,27.80
2024-04-17T01:12:54.577Z,27.80
2024-04-17T01:13:54.689Z,27.82
2024-04-17T01:14:54.540Z,27.82
2024-04-17T01:15:54.526Z,27.81
2024-04-17T01:16:54.614Z,27.82
2024-04-17T01:17:54.587Z,27.82
2024-04-17T01:18:54.450Z,27.82
2024-04-17T01:19:54.541Z,27.81
2024-04-17T01:20:54.394Z,27.81
2024-04-17T01:21:54.364Z,27.81
2024-04-17T01:22:54.428Z,27.78
2024-04-17T01:23:54.347Z,27.80
2024-04-17T01:24:54.273Z,27.81
2024-04-17T01:25:54.492Z,27.80
2024-04-17T01:26:54.237Z,27.80
2024-04-17T01:27:54.234Z,27.80
2024-04-17T01:28:54.286Z,27.81
2024-04-17T01:29:54.183Z,27.80
2024-04-17T01:30:54.147Z,27.81
2024-04-17T01:31:54.226Z,27.80
2024-04-17T01:32:54.256Z,27.81
2024-04-17T01:33:54.090Z,27.81
2024-04-17T01:34:55.051Z,27.81
2024-04-17T01:35:54.057Z,27.82
2024-04-17T01:36:54.038Z,27.82
2024-04-17T01:37:54.161Z,27.85
2024-04-17T01:38:54.031Z,27.85
2024-04-17T01:39:53.966Z,27.84
2024-04-17T01:40:53.974Z,27.85
2024-04-17T01:41:53.946Z,27.82
2024-04-17T01:42:53.902Z,27.82
2024-04-17T01:43:53.963Z,27.85
2024-04-17T01:44:53.853Z,27.85
2024-04-17T01:45:53.890Z,27.85
2024-04-17T01:46:53.940Z,27.84
2024-04-17T01:47:53.976Z,27.87
2024-04-17T01:48:53.790Z,27.88
2024-04-17T01:49:53.835Z,27.88
2024-04-17T01:50:53.787Z,27.87
2024-04-17T01:51:53.770Z,27.87
2024-04-17T01:52:53.766Z,27.87
2024-04-17T01:53:53.728Z,27.87
2024-04-17T01:54:53.710Z,27.88
2024-04-17T01:55:53.704Z,27.87
2024-04-17T01:56:53.664Z,27.88
2024-04-17T01:57:53.631Z,27.87
2024-04-17T01:58:53.725Z,27.88
2024-04-17T01:59:53.606Z,27.88
2024-04-17T02:00:53.605Z,27.89
2024-04-17T02:01:53.557Z,27.89
2024-04-17T02:02:53.534Z,27.88
2024-04-17T02:03:53.539Z,27.88
2024-04-17T02:04:53.501Z,27.85
2024-04-17T02:05:53.452Z,27.85
2024-04-17T02:06:53.415Z,27.88
2024-04-17T02:07:53.460Z,27.87
2024-04-17T02:08:53.363Z,27.89
2024-04-17T02:09:53.404Z,27.87
2024-04-17T02:10:53.414Z,27.87
2024-04-17T02:11:53.311Z,27.87
2024-04-17T02:12:53.300Z,27.87
2024-04-17T02:13:53.299Z,27.87
2024-04-17T02:14:53.227Z,27.85
2024-04-17T02:15:53.192Z,27.87
2024-04-17T02:16:53.331Z,27.88
2024-04-17T02:17:53.291Z,27.87
2024-04-17T02:18:53.132Z,27.84
2024-04-17T02:19:53.194Z,27.87
2024-04-17T02:20:53.113Z,27.89
2024-04-17T02:21:53.117Z,27.89
2024-04-17T02:22:53.131Z,27.88
2024-04-17T02:23:53.020Z,27.87
2024-04-17T02:24:52.987Z,27.88
2024-04-17T02:25:53.050Z,27.84
2024-04-17T02:26:52.951Z,27.89
2024-04-17T02:27:52.915Z,27.87
2024-04-17T02:28:53.087Z,27.88
2024-04-17T02:29:52.875Z,27.87
2024-04-17T02:30:52.846Z,27.87
2024-04-17T02:31:52.866Z,27.88
2024-04-17T02:32:52.828Z,27.88
2024-04-17T02:33:52.779Z,27.87
2024-04-17T02:34:52.894Z,27.85
2024-04-17T02:35:52.722Z,27.88
2024-04-17T02:36:52.695Z,27.87
2024-04-17T02:37:52.831Z,27.85
2024-04-17T02:38:52.631Z,27.88
2024-04-17T02:39:52.604Z,27.88
2024-04-17T02:40:52.662Z,27.85
2024-04-17T02:41:52.553Z,27.89
2024-04-17T02:42:52.536Z,27.87
2024-04-17T02:43:52.563Z,27.87
2024-04-17T02:44:52.455Z,27.89
2024-04-17T02:45:52.459Z,27.88
2024-04-17T02:46:52.492Z,27.88
2024-04-17T02:47:52.474Z,27.89
2024-04-17T02:48:52.393Z,27.89
2024-04-17T02:49:52.455Z,27.88
2024-04-17T02:50:52.391Z,27.88
2024-04-17T02:51:52.365Z,27.88
2024-04-17T02:52:52.485Z,27.88
2024-04-17T02:53:52.332Z,27.87
2024-04-17T02:54:52.313Z,27.87
2024-04-17T02:55:52.373Z,27.89
2024-04-17T02:56:52.298Z,27.87
2024-04-17T02:57:52.258Z,27.88
2024-04-17T02:58:52.397Z,27.87
2024-04-17T02:59:52.221Z,27.85
2024-04-17T03:00:52.212Z,27.87
2024-04-17T03:01:52.427Z,27.87
2024-04-17T03:02:52.247Z,27.87
2024-04-17T03:03:52.224Z,27.87
2024-04-17T03:04:52.216Z,27.88
2024-04-17T03:05:52.149Z,27.87
2024-04-17T03:06:52.139Z,27.87
2024-04-17T03:07:52.219Z,27.87
2024-04-17T03:08:52.098Z,27.88
2024-04-17T03:09:52.087Z,27.85
2024-04-17T03:10:52.156Z,27.88
2024-04-17T03:11:52.120Z,27.88
2024-04-17T03:12:52.061Z,27.87
2024-04-17T03:13:52.108Z,27.88
2024-04-17T03:14:52.033Z,27.85
2024-04-17T03:15:52.022Z,27.88
2024-04-17T03:16:52.102Z,27.87
2024-04-17T03:17:52.123Z,27.84
2024-04-17T03:18:52.004Z,27.82
2024-04-17T03:19:52.108Z,27.81
2024-04-17T03:20:51.986Z,27.82
2024-04-17T03:21:51.973Z,27.78
2024-04-17T03:22:52.037Z,27.75
2024-04-17T03:23:51.977Z,27.72
2024-04-17T03:24:51.982Z,27.69
2024-04-17T03:25:52.060Z,27.65
2024-04-17T03:26:51.990Z,27.62
2024-04-17T03:27:52.003Z,27.61
2024-04-17T03:28:52.048Z,27.57
2024-04-17T03:29:52.035Z,27.55
2024-04-17T03:30:52.064Z,27.53
2024-04-17T03:31:52.197Z,27.50
2024-04-17T03:32:52.172Z,27.50
2024-04-17T03:33:52.137Z,27.47
2024-04-17T03:34:52.173Z,27.44
2024-04-17T03:35:52.085Z,27.44
2024-04-17T03:36:52.065Z,27.43
2024-04-17T03:37:52.142Z,27.44
2024-04-17T03:38:52.057Z,27.41
2024-04-17T03:39:52.011Z,27.40
2024-04-17T03:40:52.092Z,27.38
2024-04-17T03:41:51.963Z,27.36
2024-04-17T03:42:51.972Z,27.34
2024-04-17T03:43:51.979Z,27.33
2024-04-17T03:44:51.908Z,27.33
2024-04-17T03:45:51.921Z,27.30
2024-04-17T03:46:52.008Z,27.29
2024-04-17T03:47:52.046Z,27.27
2024-04-17T03:48:52.045Z,27.23
2024-04-17T03:49:52.112Z,27.22
2024-04-17T03:50:52.120Z,27.22
2024-04-17T03:51:52.200Z,27.17
2024-04-17T03:52:52.339Z,27.16
2024-04-17T03:53:52.284Z,27.14
2024-04-17T03:54:52.313Z,27.13
2024-04-17T03:55:52.402Z,27.14
2024-04-17T03:56:52.410Z,27.13
2024-04-17T03:57:52.459Z,27.11
2024-04-17T03:58:52.538Z,27.14
2024-04-17T03:59:52.566Z,27.13
2024-04-17T04:00:52.598Z,27.13
2024-04-17T04:01:52.717Z,27.14
2024-04-17T04:02:52.740Z,27.17
2024-04-17T04:03:52.718Z,27.17
2024-04-17T04:04:52.777Z,27.17
2024-04-17T04:05:52.796Z,27.22
2024-04-17T04:06:52.826Z,27.20
2024-04-17T04:07:53.010Z,27.25
2024-04-17T04:08:52.914Z,27.26
2024-04-17T04:09:52.930Z,27.27
2024-04-17T04:10:52.982Z,27.30
2024-04-17T04:11:53.023Z,27.27
2024-04-17T04:12:53.024Z,27.30
2024-04-17T04:13:53.125Z,27.29
2024-04-17T04:14:53.099Z,27.32
2024-04-17T04:15:53.112Z,27.33
2024-04-17T04:16:53.429Z,27.34
2024-04-17T04:17:53.235Z,27.32
2024-04-17T04:18:53.210Z,27.33
2024-04-17T04:19:53.322Z,27.33
2024-04-17T04:20:53.278Z,27.32
2024-04-17T04:21:53.323Z,27.32
2024-04-17T04:22:53.380Z,27.30
2024-04-17T04:23:53.401Z,27.29
2024-04-17T04:24:53.424Z,27.29
2024-04-17T04:25:53.574Z,27.25
2024-04-17T04:26:53.590Z,27.25
2024-04-17T04:27:53.529Z,27.20
2024-04-17T04:28:53.706Z,27.17
2024-04-17T04:29:53.678Z,27.20
2024-04-17T04:30:53.694Z,27.17
2024-04-17T04:31:53.892Z,27.14
2024-04-17T04:32:53.858Z,27.14
2024-04-17T04:33:53.798Z,27.11
2024-04-17T04:34:54.008Z,27.10
2024-04-17T04:35:53.918Z,27.09
2024-04-17T04:36:53.962Z,27.05
2024-04-17T04:37:54.076Z,26.99
2024-04-17T04:38:54.068Z,26.98
2024-04-17T04:39:54.087Z,26.93
2024-04-17T04:40:54.206Z,26.96
2024-04-17T04:41:54.209Z,26.95
2024-04-17T04:42:54.236Z,26.96
2024-04-17T04:43:54.424Z,26.96
2024-04-17T04:44:54.386Z,26.96
2024-04-17T04:45:54.435Z,26.95
2024-04-17T04:47:01.823Z,26.95
2024-04-17T04:48:01.822Z,26.93
2024-04-17T04:49:01.691Z,26.93
2024-04-17T04:50:01.725Z,26.92
2024-04-17T04:51:01.677Z,26.92
2024-04-17T04:52:01.652Z,26.90
2024-04-17T04:53:01.742Z,26.88
2024-04-17T04:54:01.619Z,26.86
2024-04-17T04:55:01.610Z,26.86
2024-04-17T04:56:01.624Z,26.85
2024-04-17T04:57:01.608Z,26.85
2024-04-17T04:58:01.591Z,26.82
2024-04-17T04:59:01.646Z,26.81
2024-04-17T05:00:01.673Z,26.82
2024-04-17T05:01:02.662Z,26.82
2024-04-17T05:02:01.853Z,26.82
2024-04-17T05:03:01.856Z,26.79
2024-04-17T05:04:01.963Z,26.81
2024-04-17T05:05:01.986Z,26.79
2024-04-17T05:06:01.985Z,26.79
2024-04-17T05:07:02.059Z,26.81
2024-04-17T05:08:02.321Z,26.81
2024-04-17T05:09:02.141Z,26.81
2024-04-17T05:10:02.208Z,26.77
2024-04-17T05:11:02.329Z,26.78
2024-04-17T05:12:02.315Z,26.75
2024-04-17T05:13:02.379Z,26.75
2024-04-17T05:14:02.483Z,26.77
2024-04-17T05:15:02.457Z,26.81
2024-04-17T05:16:02.550Z,26.78
2024-04-17T05:17:02.722Z,26.78
2024-04-17T05:18:02.736Z,26.79
2024-04-17T05:19:02.623Z,26.78
2024-04-17T05:20:02.674Z,26.75
2024-04-17T05:21:02.581Z,26.78
2024-04-17T05:22:02.601Z,26.72
2024-04-17T05:23:02.577Z,26.74
2024-04-17T05:24:02.528Z,26.71
2024-04-17T05:25:02.549Z,26.72
2024-04-17T05:26:02.587Z,26.70
2024-04-17T05:27:02.586Z,26.68
2024-04-17T05:28:02.659Z,26.67
2024-04-17T05:29:02.742Z,26.65
2024-04-17T05:30:02.758Z,26.61
2024-04-17T05:31:02.801Z,26.56
2024-04-17T05:32:02.869Z,26.59
2024-04-17T05:33:03.468Z,26.55
2024-04-17T05:34:02.917Z,26.51
2024-04-17T05:35:02.971Z,26.50
2024-04-17T05:36:03.885Z,26.48
2024-04-17T05:37:02.972Z,26.47
2024-04-17T05:38:03.011Z,26.48
2024-04-17T05:39:03.006Z,26.48
2024-04-17T05:40:02.919Z,26.45
2024-04-17T05:41:02.958Z,26.48
2024-04-17T05:42:02.901Z,26.50
2024-04-17T05:43:02.885Z,26.47
2024-04-17T05:44:02.911Z,26.44
2024-04-17T05:45:02.914Z,26.43
2024-04-17T05:46:02.831Z,26.40
2024-04-17T05:47:03.077Z,26.37
2024-04-17T05:48:02.961Z,26.34
2024-04-17T05:49:02.831Z,26.31
2024-04-17T05:50:05.347Z,26.27
2024-04-17T05:51:02.707Z,26.31
2024-04-17T05:52:02.718Z,26.35
2024-04-17T05:53:03.035Z,26.35
2024-04-17T05:54:02.665Z,26.38
2024-04-17T05:55:03.183Z,26.40
2024-04-17T05:56:02.784Z,26.41
2024-04-17T05:57:02.771Z,26.44
2024-04-17T05:58:02.665Z,26.45
2024-04-17T05:59:02.745Z,26.47
2024-04-17T06:00:02.682Z,26.47
2024-04-17T06:01:02.942Z,26.50
2024-04-17T06:02:02.767Z,26.52
2024-04-17T06:03:03.051Z,26.55
2024-04-17T06:04:02.831Z,26.56
2024-04-17T06:05:02.965Z,26.59
2024-04-17T06:06:02.949Z,26.58
2024-04-17T06:07:02.936Z,26.64
2024-04-17T06:08:03.172Z,26.67
2024-04-17T06:09:03.008Z,26.67
2024-04-17T06:10:03.051Z,26.68
2024-04-17T06:11:03.226Z,26.70
2024-04-17T06:12:03.125Z,26.74
2024-04-17T06:13:03.105Z,26.72
2024-04-17T06:15:03.184Z,26.79
2024-04-17T06:16:03.316Z,26.81
2024-04-17T06:17:03.247Z,26.82
2024-04-17T06:18:03.312Z,26.82
2024-04-17T06:19:03.895Z,26.88
2024-04-17T06:20:03.284Z,26.92
2024-04-17T06:21:03.248Z,26.92
2024-04-17T06:22:03.311Z,26.95
2024-04-17T06:23:03.433Z,26.95
2024-04-17T06:24:03.873Z,26.99
2024-04-17T06:25:05.885Z,26.98
2024-04-17T06:26:04.415Z,26.99
2024-04-17T06:27:03.939Z,27.02
2024-04-17T06:28:03.303Z,27.03
2024-04-17T06:29:03.336Z,27.06
2024-04-17T06:30:03.216Z,27.07
2024-04-17T06:31:03.180Z,27.09
2024-04-17T06:32:03.307Z,27.14
2024-04-17T06:33:03.249Z,27.19
2024-04-17T06:34:03.091Z,27.19
2024-04-17T06:35:03.109Z,27.22
2024-04-17T06:36:03.036Z,27.23
2024-04-17T06:37:03.000Z,27.23
2024-04-17T06:38:03.181Z,27.25
2024-04-17T06:39:03.029Z,27.25
2024-04-17T06:40:02.925Z,27.26
2024-04-17T06:41:04.275Z,27.26
2024-04-17T06:42:03.565Z,27.29
2024-04-17T06:43:02.863Z,27.33
2024-04-17T06:44:02.838Z,27.34
2024-04-17T06:45:02.781Z,27.38
2024-04-17T06:46:02.763Z,27.44
2024-04-17T06:47:02.790Z,27.41
2024-04-17T06:48:03.178Z,27.46
2024-04-17T06:49:02.634Z,27.46
2024-04-17T06:50:02.797Z,27.46
2024-04-17T06:51:02.578Z,27.44
2024-04-17T06:52:02.567Z,27.47
2024-04-17T06:53:02.624Z,27.47
2024-04-17T06:54:02.543Z,27.50
2024-04-17T06:55:02.506Z,27.50
2024-04-17T06:56:02.588Z,27.51
2024-04-17T06:57:02.584Z,27.51
2024-04-17T06:58:02.414Z,27.53
2024-04-17T06:59:02.516Z,27.51
2024-04-17T07:00:02.410Z,27.51
2024-04-17T07:01:02.382Z,27.53
2024-04-17T07:02:02.399Z,27.50
2024-04-17T07:03:04.825Z,27.51
2024-04-17T07:04:02.281Z,27.54
2024-04-17T07:05:02.986Z,27.53
2024-04-17T07:06:02.230Z,27.53
2024-04-17T07:07:02.123Z,27.54
2024-04-17T07:08:02.203Z,27.53
2024-04-17T07:09:02.079Z,27.53
2024-04-17T07:10:02.054Z,27.54
2024-04-17T07:11:02.027Z,27.55
2024-04-17T07:12:02.123Z,27.54
2024-04-17T07:13:01.993Z,27.55
2024-04-17T07:14:02.001Z,27.54
2024-04-17T07:15:01.935Z,27.55
2024-04-17T07:16:01.857Z,27.57
2024-04-17T07:17:01.909Z,27.60
2024-04-17T07:18:01.966Z,27.61
2024-04-17T07:19:02.462Z,27.60
2024-04-17T07:20:01.973Z,27.61
2024-04-17T07:21:01.878Z,27.61
2024-04-17T07:22:01.833Z,27.60
2024-04-17T07:23:02.077Z,27.55
2024-04-17T07:24:01.776Z,27.54
2024-04-17T07:25:02.451Z,27.53
2024-04-17T07:26:01.871Z,27.53
2024-04-17T07:27:02.410Z,27.50
2024-04-17T07:28:01.654Z,27.46
2024-04-17T07:29:01.667Z,27.47
2024-04-17T07:30:01.637Z,27.44
2024-04-17T07:31:01.608Z,27.41
2024-04-17T07:32:01.657Z,27.37
2024-04-17T07:33:01.647Z,27.36
2024-04-17T07:34:01.630Z,27.32
2024-04-17T07:35:03.419Z,27.32
2024-04-17T07:36:01.691Z,27.30
2024-04-17T07:37:01.896Z,27.25
2024-04-17T07:38:01.733Z,27.22
2024-04-17T07:39:01.912Z,27.17
2024-04-17T07:40:01.697Z,27.19
2024-04-17T07:41:01.756Z,27.20
2024-04-17T07:42:01.606Z,27.17
2024-04-17T07:43:01.578Z,27.17
2024-04-17T07:44:01.625Z,27.19
2024-04-17T07:45:01.559Z,27.23
2024-04-17T07:46:01.496Z,27.19
2024-04-17T07:47:01.537Z,27.20
2024-04-17T07:48:03.401Z,27.20
2024-04-17T07:49:01.412Z,27.25
2024-04-17T07:50:01.453Z,27.23
2024-04-17T07:51:01.347Z,27.27
2024-04-17T07:52:01.341Z,27.27
2024-04-17T07:53:01.372Z,27.27
2024-04-17T07:54:01.260Z,27.29
2024-04-17T07:55:02.069Z,27.26
2024-04-17T07:56:01.332Z,27.29
2024-04-17T07:57:01.163Z,27.30
2024-04-17T07:58:01.468Z,27.30
2024-04-17T07:59:01.169Z,27.32
2024-04-17T08:00:01.056Z,27.33
2024-04-17T08:01:01.091Z,27.32
2024-04-17T08:02:01.367Z,27.33
2024-04-17T08:03:01.000Z,27.27
2024-04-17T08:04:00.944Z,27.30
2024-04-17T08:05:00.902Z,27.32
2024-04-17T08:06:00.914Z,27.32
2024-04-17T08:07:00.893Z,27.33
2024-04-17T08:08:00.993Z,27.36
2024-04-17T08:09:00.769Z,27.36
2024-04-17T08:10:00.767Z,27.38
2024-04-17T08:11:00.758Z,27.37
2024-04-17T08:12:00.727Z,27.38
2024-04-17T08:13:00.659Z,27.37
2024-04-17T08:14:00.735Z,27.40
2024-04-17T08:15:00.580Z,27.36
2024-04-17T08:16:00.652Z,27.37
2024-04-17T08:17:00.780Z,27.38
2024-04-17T08:18:00.675Z,27.38
2024-04-17T08:19:00.519Z,27.41
2024-04-17T08:20:00.624Z,27.40
2024-04-17T08:21:00.460Z,27.41
2024-04-17T08:22:00.440Z,27.44
2024-04-17T08:23:00.509Z,27.43
2024-04-17T08:24:00.308Z,27.46
2024-04-17T08:25:00.353Z,27.46
2024-04-17T08:26:00.429Z,27.48
2024-04-17T08:27:00.510Z,27.50
2024-04-17T08:28:00.687Z,27.50
2024-04-17T08:29:00.743Z,27.53
2024-04-17T08:30:00.456Z,27.50
2024-04-17T08:31:00.430Z,27.40
2024-04-17T08:32:00.538Z,27.41
2024-04-17T08:33:00.751Z,27.34
2024-04-17T08:34:00.761Z,27.16
2024-04-17T08:35:00.605Z,26.70
2024-04-17T08:36:00.552Z,26.58
2024-04-17T08:37:00.442Z,26.43
2024-04-17T08:38:00.562Z,26.34
2024-04-17T08:39:01.468Z,26.06
2024-04-17T08:40:01.432Z,25.83
2024-04-17T08:41:00.866Z,25.73
2024-04-17T08:42:00.628Z,25.75
2024-04-17T08:43:00.556Z,25.79
2024-04-17T08:44:00.650Z,25.87
2024-04-17T08:45:00.554Z,25.97
2024-04-17T08:46:00.518Z,26.07
2024-04-17T08:47:00.602Z,26.12
2024-04-17T08:48:00.734Z,26.16
2024-04-17T08:49:00.463Z,26.13
2024-04-17T08:50:00.576Z,25.61
2024-04-17T08:51:00.704Z,25.28
2024-04-17T08:52:00.530Z,25.40
2024-04-17T08:53:00.679Z,25.35
2024-04-17T08:54:00.406Z,25.45
2024-04-17T08:55:00.424Z,25.53
2024-04-17T08:56:00.732Z,25.64
2024-04-17T08:57:00.423Z,25.75
2024-04-17T08:58:00.541Z,25.80
2024-04-17T08:59:00.492Z,25.95
2024-04-17T09:00:00.335Z,26.07
2024-04-17T09:01:00.316Z,26.17
2024-04-17T09:02:00.386Z,26.26
2024-04-17T09:03:00.341Z,26.34
2024-04-17T09:04:00.207Z,26.38
2024-04-17T09:05:00.472Z,26.47
2024-04-17T09:06:00.967Z,26.54
2024-04-17T09:07:00.127Z,26.56
2024-04-17T09:08:00.202Z,26.67
2024-04-17T09:09:00.077Z,26.65
2024-04-17T09:10:00.147Z,26.75
2024-04-17T09:11:00.245Z,26.77
2024-04-17T09:12:00.137Z,26.86
2024-04-17T09:13:00.307Z,26.95
2024-04-17T09:14:00.301Z,26.99
2024-04-17T09:15:00.248Z,27.03
2024-04-17T09:16:00.298Z,27.07
2024-04-17T09:17:00.399Z,27.09
2024-04-17T09:18:00.369Z,27.14
2024-04-17T09:19:00.239Z,27.11
2024-04-17T09:20:00.430Z,27.19
2024-04-17T09:21:00.183Z,27.17
2024-04-17T09:22:00.957Z,27.14
2024-04-17T09:23:00.258Z,27.22
2024-04-17T09:24:00.123Z,27.23
2024-04-17T09:25:00.063Z,27.29
2024-04-17T09:26:00.267Z,27.29
2024-04-17T09:27:00.111Z,27.33
2024-04-17T09:28:00.014Z,27.36
2024-04-17T09:29:00.108Z,27.40
2024-04-17T09:29:59.918Z,27.41
2024-04-17T09:30:59.937Z,27.44
2024-04-17T09:31:59.923Z,27.50
2024-04-17T09:33:00.206Z,27.50
2024-04-17T09:33:59.859Z,27.55
2024-04-17T09:34:59.856Z,27.60
2024-04-17T09:36:00.806Z,27.62
2024-04-17T09:37:02.523Z,27.67
2024-04-17T09:37:59.769Z,27.71
2024-04-17T09:39:00.493Z,27.75
2024-04-17T09:39:59.624Z,27.75
2024-04-17T09:40:59.631Z,27.68
2024-04-17T09:41:59.557Z,27.61
2024-04-17T09:43:06.166Z,27.40
2024-04-17T09:44:00.522Z,27.19
2024-04-17T09:44:59.437Z,27.10
2024-04-17T09:45:59.503Z,26.99
2024-04-17T09:46:59.824Z,26.90
2024-04-17T09:47:59.566Z,26.58
2024-04-17T09:48:59.527Z,26.56
2024-04-17T09:49:59.447Z,26.58
2024-04-17T09:50:59.341Z,26.51
2024-04-17T09:51:59.328Z,26.50
2024-04-17T09:52:59.394Z,26.44
2024-04-17T09:53:59.306Z,26.45
2024-04-17T09:54:59.355Z,26.51
2024-04-17T09:55:59.360Z,26.50
2024-04-17T09:56:59.301Z,26.48
2024-04-17T09:57:59.269Z,26.54
2024-04-17T09:59:06.407Z,26.58
2024-04-17T10:00:00.283Z,26.67
2024-04-17T10:00:59.221Z,26.70
2024-04-17T10:01:59.318Z,26.77
2024-04-17T10:02:59.235Z,26.82
2024-04-17T10:03:59.213Z,26.83
2024-04-17T10:04:59.175Z,26.70
2024-04-17T10:05:59.082Z,26.67
2024-04-17T10:06:59.055Z,26.68
2024-04-17T10:07:59.134Z,26.71
2024-04-17T10:08:59.045Z,26.59
2024-04-17T10:09:59.008Z,26.24
2024-04-17T10:10:59.056Z,26.26
2024-04-17T10:11:59.041Z,26.20
2024-04-17T10:12:58.997Z,26.00
2024-04-17T10:13:59.016Z,25.99
2024-04-17T10:14:58.983Z,25.99
2024-04-17T10:15:58.951Z,25.92
2024-04-17T10:16:59.062Z,25.83
2024-04-17T10:17:59.108Z,25.64
2024-04-17T10:18:59.118Z,25.24
2024-04-17T10:19:59.178Z,25.18
2024-04-17T10:20:59.227Z,24.75
2024-04-17T10:21:59.246Z,24.58
2024-04-17T10:22:59.339Z,24.55
2024-04-17T10:23:59.507Z,24.46
2024-04-17T10:24:59.374Z,24.25
2024-04-17T10:25:59.431Z,24.21
2024-04-17T10:26:59.362Z,24.22
2024-04-17T10:27:59.379Z,24.32
2024-04-17T10:28:59.434Z,23.93
2024-04-17T10:29:59.398Z,23.99
2024-04-17T10:30:59.426Z,23.83
2024-04-17T10:31:59.632Z,23.88
2024-04-17T10:32:59.630Z,24.00
2024-04-17T10:33:59.533Z,23.72
2024-04-17T10:34:59.693Z,23.08
2024-04-17T10:35:59.647Z,23.15
2024-04-17T10:36:59.778Z,22.77
2024-04-17T10:38:02.150Z,22.47
2024-04-17T10:38:59.864Z,22.36
2024-04-17T10:39:59.828Z,22.46
2024-04-17T10:40:59.943Z,22.66
2024-04-17T10:41:59.880Z,22.44
2024-04-17T10:42:59.892Z,22.33
2024-04-17T10:44:01.033Z,22.28
2024-04-17T10:44:59.930Z,22.28
2024-04-17T10:45:59.966Z,22.09
2024-04-17T10:47:00.048Z,22.19
2024-04-17T10:48:00.060Z,22.29
2024-04-17T10:49:00.414Z,22.42
2024-04-17T10:50:00.787Z,22.60
2024-04-17T10:51:00.046Z,22.64
2024-04-17T10:52:01.002Z,22.13
2024-04-17T10:53:00.194Z,22.11
2024-04-17T10:54:00.157Z,22.22
2024-04-17T10:55:00.210Z,22.35
2024-04-17T10:56:00.321Z,22.44
2024-04-17T10:57:00.194Z,22.35
2024-04-17T10:58:00.220Z,22.39
2024-04-17T10:59:00.293Z,22.38
2024-04-17T11:00:00.415Z,22.52
2024-04-17T11:01:00.359Z,22.64
2024-04-17T11:02:00.443Z,22.80
2024-04-17T11:03:00.410Z,22.81
2024-04-17T11:04:00.523Z,22.42
2024-04-17T11:05:00.440Z,22.57
2024-04-17T11:06:02.750Z,22.70
2024-04-17T11:07:00.450Z,22.84
2024-04-17T11:08:00.561Z,22.88
2024-04-17T11:09:05.185Z,22.98
2024-04-17T11:10:01.532Z,23.02
2024-04-17T11:11:00.604Z,23.02
2024-04-17T11:12:00.549Z,22.94
2024-04-17T11:13:00.463Z,22.99
2024-04-17T11:14:00.660Z,22.88
2024-04-17T11:15:00.670Z,22.88
2024-04-17T11:16:00.548Z,22.87
2024-04-17T11:17:00.689Z,22.88
2024-04-17T11:18:00.633Z,22.91
2024-04-17T11:19:00.701Z,22.94
2024-04-17T11:20:00.736Z,23.08
2024-04-17T11:21:00.651Z,23.11
2024-04-17T11:22:00.624Z,23.23
2024-04-17T11:23:00.669Z,23.28
2024-04-17T11:24:00.689Z,23.33
2024-04-17T11:25:00.882Z,23.43
2024-04-17T11:26:00.865Z,23.53
2024-04-17T11:27:00.916Z,23.67
2024-04-17T11:28:00.762Z,23.81
2024-04-17T11:29:01.778Z,23.91
2024-04-17T11:30:01.048Z,24.08
2024-04-17T11:31:00.970Z,24.18
2024-04-17T11:32:01.599Z,24.03
2024-04-17T11:33:01.071Z,24.05
2024-04-17T11:34:01.075Z,24.10
2024-04-17T11:35:01.151Z,24.20
2024-04-17T11:36:02.048Z,24.28
2024-04-17T11:37:01.077Z,24.38
2024-04-17T11:38:01.169Z,24.48
2024-04-17T11:39:01.093Z,24.58
2024-04-17T11:40:01.141Z,24.63
2024-04-17T11:41:01.089Z,24.73
2024-04-17T11:42:01.054Z,24.76
2024-04-17T11:43:01.048Z,24.86
2024-04-17T11:44:01.154Z,24.93
2024-04-17T11:45:01.039Z,25.00
2024-04-17T11:46:01.037Z,25.09
2024-04-17T11:47:01.174Z,25.17
2024-04-17T11:48:01.226Z,25.24
2024-04-17T11:49:01.562Z,25.30
2024-04-17T11:50:01.290Z,25.32
2024-04-17T11:51:01.299Z,25.34
2024-04-17T11:52:01.298Z,25.35
2024-04-17T11:53:01.493Z,25.27
2024-04-17T11:54:01.436Z,25.17
2024-04-17T11:55:01.443Z,25.13
2024-04-17T11:56:01.496Z,25.11
2024-04-17T11:57:01.416Z,25.00
2024-04-17T11:58:01.427Z,24.91
2024-04-17T11:59:01.545Z,24.93
2024-04-17T12:00:01.447Z,24.86
2024-04-17T12:01:01.522Z,24.83
2024-04-17T12:02:01.494Z,24.73
2024-04-17T12:03:01.482Z,24.72
2024-04-17T12:04:01.521Z,24.70
2024-04-17T12:05:01.560Z,24.75
2024-04-17T12:06:01.481Z,24.79
2024-04-17T12:07:01.629Z,24.79
2024-04-17T12:08:01.589Z,24.80
2024-04-17T12:09:01.494Z,24.87
2024-04-17T12:10:01.478Z,24.94
2024-04-17T12:11:01.633Z,25.03
2024-04-17T12:12:01.508Z,25.13
2024-04-17T12:13:01.465Z,25.20
2024-04-17T12:14:01.571Z,25.30
2024-04-17T12:15:01.696Z,25.32
2024-04-17T12:16:01.520Z,25.40
2024-04-17T12:17:01.488Z,25.46
2024-04-17T12:18:01.572Z,25.53
2024-04-17T12:19:01.542Z,25.58
2024-04-17T12:20:01.629Z,25.65
2024-04-17T12:21:01.408Z,25.69
2024-04-17T12:22:01.409Z,25.65
2024-04-17T12:23:01.566Z,25.59
2024-04-17T12:24:02.099Z,25.44
2024-04-17T12:25:01.399Z,25.31
2024-04-17T12:26:01.968Z,25.20
2024-04-17T12:27:01.452Z,24.58
2024-04-17T12:28:01.460Z,24.46
2024-04-17T12:29:01.510Z,24.40
2024-04-17T12:30:01.492Z,24.35
2024-04-17T12:31:01.541Z,24.24
2024-04-17T12:32:01.790Z,24.27
2024-04-17T12:33:01.746Z,24.28
2024-04-17T12:34:01.701Z,24.27
2024-04-17T12:35:01.777Z,24.24
2024-04-17T12:36:01.808Z,24.21
2024-04-17T12:37:01.842Z,24.22
2024-04-17T12:38:02.010Z,24.34
2024-04-17T12:39:01.926Z,24.43
2024-04-17T12:40:01.880Z,24.51
2024-04-17T12:41:01.939Z,24.49
2024-04-17T12:42:01.882Z,24.59
2024-04-17T12:43:01.864Z,24.65
2024-04-17T12:44:01.976Z,24.76
2024-04-17T12:45:01.970Z,24.86
2024-04-17T12:46:01.866Z,24.90
2024-04-17T12:47:01.966Z,24.96
2024-04-17T12:48:01.959Z,25.02
2024-04-17T12:49:01.863Z,25.09
2024-04-17T12:50:01.889Z,25.15
2024-04-17T12:51:01.834Z,25.24
2024-04-17T12:52:01.844Z,25.31
2024-04-17T12:53:01.947Z,25.37
2024-04-17T12:54:01.881Z,25.40